sensor_id;sensor_type;location;lat;lon;timestamp;temperature;humidity
44863;DHT22;30597;49.628;10.850;2022-09-17T00:00:04;20.10;56.90
44863;DHT22;30597;49.628;10.850;2022-09-17T00:02:30;20.20;57.10
44863;DHT22;30597;49.628;10.850;2022-09-17T00:04:55;20.10;57.00
44863;DHT22;30597;49.628;10.850;2022-09-17T00:07:21;20.20;57.00
44863;DHT22;30597;49.628;10.850;2022-09-17T00:09:47;20.20;56.90
44863;DHT22;30597;49.628;10.850;2022-09-17T00:12:12;20.20;57.10
44863;DHT22;30597;49.628;10.850;2022-09-17T00:14:39;20.20;57.10
44863;DHT22;30597;49.628;10.850;2022-09-17T00:17:05;20.20;57.00
44863;DHT22;30597;49.628;10.850;2022-09-17T00:19:30;20.30;57.10
44863;DHT22;30597;49.628;10.850;2022-09-17T00:21:56;20.30;57.10
44863;DHT22;30597;49.628;10.850;2022-09-17T00:24:22;20.30;57.10
44863;DHT22;30597;49.628;10.850;2022-09-17T00:26:47;20.30;56.80
44863;DHT22;30597;49.628;10.850;2022-09-17T00:29:13;20.30;56.90
44863;DHT22;30597;49.628;10.850;2022-09-17T00:31:39;20.30;56.90
44863;DHT22;30597;49.628;10.850;2022-09-17T00:34:05;20.30;57.00
44863;DHT22;30597;49.628;10.850;2022-09-17T00:36:34;20.30;57.10
44863;DHT22;30597;49.628;10.850;2022-09-17T00:39:00;20.30;57.20
44863;DHT22;30597;49.628;10.850;2022-09-17T00:41:28;20.30;57.30
44863;DHT22;30597;49.628;10.850;2022-09-17T00:43:56;20.30;57.20
44863;DHT22;30597;49.628;10.850;2022-09-17T00:46:41;20.30;57.20
44863;DHT22;30597;49.628;10.850;2022-09-17T00:49:17;20.30;57.20
44863;DHT22;30597;49.628;10.850;2022-09-17T00:51:56;20.20;57.30
44863;DHT22;30597;49.628;10.850;2022-09-17T00:54:24;20.20;57.50
44863;DHT22;30597;49.628;10.850;2022-09-17T00:56:50;20.20;57.50
44863;DHT22;30597;49.628;10.850;2022-09-17T00:59:18;20.20;57.50
44863;DHT22;30597;49.628;10.850;2022-09-17T01:01:43;20.10;57.50
44863;DHT22;30597;49.628;10.850;2022-09-17T01:04:20;20.10;57.80
44863;DHT22;30597;49.628;10.850;2022-09-17T01:07:02;20.20;57.80
44863;DHT22;30597;49.628;10.850;2022-09-17T01:09:58;20.10;57.80
44863;DHT22;30597;49.628;10.850;2022-09-17T01:12:52;20.10;57.90
44863;DHT22;30597;49.628;10.850;2022-09-17T01:15:34;20.10;57.90
44863;DHT22;30597;49.628;10.850;2022-09-17T01:18:15;20.10;58.00
44863;DHT22;30597;49.628;10.850;2022-09-17T01:20:56;20.10;58.10
44863;DHT22;30597;49.628;10.850;2022-09-17T01:31:53;20.10;58.50
44863;DHT22;30597;49.628;10.850;2022-09-17T01:34:29;20.00;58.40
44863;DHT22;30597;49.628;10.850;2022-09-17T01:37:16;20.10;58.50
44863;DHT22;30597;49.628;10.850;2022-09-17T01:40:17;20.10;58.60
44863;DHT22;30597;49.628;10.850;2022-09-17T01:42:48;20.10;58.40
44863;DHT22;30597;49.628;10.850;2022-09-17T01:45:36;20.20;58.40
44863;DHT22;30597;49.628;10.850;2022-09-17T01:48:14;20.20;58.30
44863;DHT22;30597;49.628;10.850;2022-09-17T01:53:22;20.20;58.30
44863;DHT22;30597;49.628;10.850;2022-09-17T01:55:50;20.20;58.30
44863;DHT22;30597;49.628;10.850;2022-09-17T01:58:25;20.30;58.40
44863;DHT22;30597;49.628;10.850;2022-09-17T02:00:57;20.30;58.30
44863;DHT22;30597;49.628;10.850;2022-09-17T02:03:48;20.30;58.40
44863;DHT22;30597;49.628;10.850;2022-09-17T02:06:21;20.30;58.30
44863;DHT22;30597;49.628;10.850;2022-09-17T02:09:18;20.30;58.40
44863;DHT22;30597;49.628;10.850;2022-09-17T02:11:50;20.30;58.40
44863;DHT22;30597;49.628;10.850;2022-09-17T02:14:23;20.30;58.40
44863;DHT22;30597;49.628;10.850;2022-09-17T02:16:55;20.30;58.50
44863;DHT22;30597;49.628;10.850;2022-09-17T02:19:30;20.30;58.50
44863;DHT22;30597;49.628;10.850;2022-09-17T02:22:11;20.30;58.40
44863;DHT22;30597;49.628;10.850;2022-09-17T02:24:54;20.30;58.50
44863;DHT22;30597;49.628;10.850;2022-09-17T02:30:18;20.30;58.50
44863;DHT22;30597;49.628;10.850;2022-09-17T02:32:43;20.30;58.60
44863;DHT22;30597;49.628;10.850;2022-09-17T02:35:10;20.30;58.40
44863;DHT22;30597;49.628;10.850;2022-09-17T02:37:39;20.30;58.60
44863;DHT22;30597;49.628;10.850;2022-09-17T02:40:06;20.30;58.50
44863;DHT22;30597;49.628;10.850;2022-09-17T02:48:54;20.40;58.60
44863;DHT22;30597;49.628;10.850;2022-09-17T02:51:41;20.30;58.60
44863;DHT22;30597;49.628;10.850;2022-09-17T02:57:24;20.40;58.90
44863;DHT22;30597;49.628;10.850;2022-09-17T03:00:01;20.40;58.70
44863;DHT22;30597;49.628;10.850;2022-09-17T03:05:40;20.30;58.60
44863;DHT22;30597;49.628;10.850;2022-09-17T03:08:08;20.30;58.60
44863;DHT22;30597;49.628;10.850;2022-09-17T03:10:36;20.40;58.80
44863;DHT22;30597;49.628;10.850;2022-09-17T03:13:02;20.40;58.90
44863;DHT22;30597;49.628;10.850;2022-09-17T03:15:28;20.40;58.70
44863;DHT22;30597;49.628;10.850;2022-09-17T03:17:53;20.30;58.60
44863;DHT22;30597;49.628;10.850;2022-09-17T03:20:19;20.40;58.70
44863;DHT22;30597;49.628;10.850;2022-09-17T03:22:45;20.40;58.80
44863;DHT22;30597;49.628;10.850;2022-09-17T03:25:11;20.40;58.80
44863;DHT22;30597;49.628;10.850;2022-09-17T03:27:37;20.40;58.90
44863;DHT22;30597;49.628;10.850;2022-09-17T03:30:03;20.40;58.80
44863;DHT22;30597;49.628;10.850;2022-09-17T03:32:29;20.40;58.80
44863;DHT22;30597;49.628;10.850;2022-09-17T03:34:54;20.40;59.20
44863;DHT22;30597;49.628;10.850;2022-09-17T03:37:20;20.30;59.20
44863;DHT22;30597;49.628;10.850;2022-09-17T03:39:46;20.40;59.30
44863;DHT22;30597;49.628;10.850;2022-09-17T03:42:11;20.40;59.40
44863;DHT22;30597;49.628;10.850;2022-09-17T03:44:37;20.30;59.20
44863;DHT22;30597;49.628;10.850;2022-09-17T03:47:03;20.30;59.40
44863;DHT22;30597;49.628;10.850;2022-09-17T03:49:28;20.30;59.40
44863;DHT22;30597;49.628;10.850;2022-09-17T03:51:54;20.30;59.60
44863;DHT22;30597;49.628;10.850;2022-09-17T03:54:19;20.30;59.70
44863;DHT22;30597;49.628;10.850;2022-09-17T03:56:45;20.30;59.50
44863;DHT22;30597;49.628;10.850;2022-09-17T03:59:10;20.30;59.60
44863;DHT22;30597;49.628;10.850;2022-09-17T04:01:36;20.30;59.60
44863;DHT22;30597;49.628;10.850;2022-09-17T04:04:02;20.30;59.60
44863;DHT22;30597;49.628;10.850;2022-09-17T04:06:28;20.30;59.50
44863;DHT22;30597;49.628;10.850;2022-09-17T04:08:54;20.30;59.70
44863;DHT22;30597;49.628;10.850;2022-09-17T04:11:21;20.30;59.40
44863;DHT22;30597;49.628;10.850;2022-09-17T04:13:47;20.40;59.50
44863;DHT22;30597;49.628;10.850;2022-09-17T04:16:13;20.40;59.60
44863;DHT22;30597;49.628;10.850;2022-09-17T04:18:38;20.30;59.40
44863;DHT22;30597;49.628;10.850;2022-09-17T04:21:04;20.40;59.50
44863;DHT22;30597;49.628;10.850;2022-09-17T04:23:30;20.40;59.50
44863;DHT22;30597;49.628;10.850;2022-09-17T04:25:55;20.30;59.50
44863;DHT22;30597;49.628;10.850;2022-09-17T04:28:21;20.30;59.50
44863;DHT22;30597;49.628;10.850;2022-09-17T04:30:47;20.30;59.60
44863;DHT22;30597;49.628;10.850;2022-09-17T04:33:13;20.30;59.50
44863;DHT22;30597;49.628;10.850;2022-09-17T04:35:38;20.30;59.50
44863;DHT22;30597;49.628;10.850;2022-09-17T04:38:04;20.30;59.70
44863;DHT22;30597;49.628;10.850;2022-09-17T04:40:30;20.30;59.70
44863;DHT22;30597;49.628;10.850;2022-09-17T04:42:56;20.30;59.70
44863;DHT22;30597;49.628;10.850;2022-09-17T04:45:28;20.30;59.80
44863;DHT22;30597;49.628;10.850;2022-09-17T04:47:54;20.30;59.80
44863;DHT22;30597;49.628;10.850;2022-09-17T04:50:21;20.30;59.80
44863;DHT22;30597;49.628;10.850;2022-09-17T04:52:47;20.30;59.80
44863;DHT22;30597;49.628;10.850;2022-09-17T04:55:13;20.30;59.90
44863;DHT22;30597;49.628;10.850;2022-09-17T04:57:45;20.20;59.90
44863;DHT22;30597;49.628;10.850;2022-09-17T05:00:12;20.20;60.10
44863;DHT22;30597;49.628;10.850;2022-09-17T05:02:37;20.20;60.30
44863;DHT22;30597;49.628;10.850;2022-09-17T05:05:03;20.10;60.40
44863;DHT22;30597;49.628;10.850;2022-09-17T05:07:29;20.10;60.60
44863;DHT22;30597;49.628;10.850;2022-09-17T05:09:54;20.10;60.70
44863;DHT22;30597;49.628;10.850;2022-09-17T05:12:20;20.10;60.70
44863;DHT22;30597;49.628;10.850;2022-09-17T05:14:45;20.10;60.70
44863;DHT22;30597;49.628;10.850;2022-09-17T05:17:11;20.10;60.70
44863;DHT22;30597;49.628;10.850;2022-09-17T05:19:36;20.10;60.70
44863;DHT22;30597;49.628;10.850;2022-09-17T05:22:02;20.10;60.80
44863;DHT22;30597;49.628;10.850;2022-09-17T05:24:27;20.10;60.80
44863;DHT22;30597;49.628;10.850;2022-09-17T05:26:53;20.10;61.00
44863;DHT22;30597;49.628;10.850;2022-09-17T05:29:19;20.00;61.00
44863;DHT22;30597;49.628;10.850;2022-09-17T05:31:44;20.00;61.10
44863;DHT22;30597;49.628;10.850;2022-09-17T05:34:10;19.90;61.20
44863;DHT22;30597;49.628;10.850;2022-09-17T05:36:35;19.90;61.20
44863;DHT22;30597;49.628;10.850;2022-09-17T05:39:01;19.90;62.10
44863;DHT22;30597;49.628;10.850;2022-09-17T05:41:27;19.90;61.50
44863;DHT22;30597;49.628;10.850;2022-09-17T05:43:52;19.90;61.60
44863;DHT22;30597;49.628;10.850;2022-09-17T05:46:18;19.90;61.70
44863;DHT22;30597;49.628;10.850;2022-09-17T05:48:43;19.90;61.60
44863;DHT22;30597;49.628;10.850;2022-09-17T05:51:09;19.90;61.80
44863;DHT22;30597;49.628;10.850;2022-09-17T05:53:34;19.90;61.60
44863;DHT22;30597;49.628;10.850;2022-09-17T05:56:00;19.90;61.50
44863;DHT22;30597;49.628;10.850;2022-09-17T05:58:26;19.80;61.60
44863;DHT22;30597;49.628;10.850;2022-09-17T06:00:52;19.80;61.60
44863;DHT22;30597;49.628;10.850;2022-09-17T06:03:19;19.80;61.60
44863;DHT22;30597;49.628;10.850;2022-09-17T06:05:56;19.80;61.60
44863;DHT22;30597;49.628;10.850;2022-09-17T06:08:23;19.80;61.70
44863;DHT22;30597;49.628;10.850;2022-09-17T06:10:49;19.80;61.90
44863;DHT22;30597;49.628;10.850;2022-09-17T06:13:18;19.80;61.00
44863;DHT22;30597;49.628;10.850;2022-09-17T06:15:51;19.80;60.90
44863;DHT22;30597;49.628;10.850;2022-09-17T06:18:17;19.90;60.90
44863;DHT22;30597;49.628;10.850;2022-09-17T06:20:42;19.80;60.90
44863;DHT22;30597;49.628;10.850;2022-09-17T06:23:16;19.80;60.90
44863;DHT22;30597;49.628;10.850;2022-09-17T06:25:41;19.90;61.00
44863;DHT22;30597;49.628;10.850;2022-09-17T06:28:07;19.90;61.10
44863;DHT22;30597;49.628;10.850;2022-09-17T06:30:32;19.80;61.00
44863;DHT22;30597;49.628;10.850;2022-09-17T06:32:58;19.80;61.00
44863;DHT22;30597;49.628;10.850;2022-09-17T06:35:24;19.80;61.20
44863;DHT22;30597;49.628;10.850;2022-09-17T06:37:50;19.80;61.10
44863;DHT22;30597;49.628;10.850;2022-09-17T06:40:15;19.70;61.10
44863;DHT22;30597;49.628;10.850;2022-09-17T06:42:41;19.70;61.10
44863;DHT22;30597;49.628;10.850;2022-09-17T06:45:07;19.70;61.20
44863;DHT22;30597;49.628;10.850;2022-09-17T06:47:33;19.80;61.40
44863;DHT22;30597;49.628;10.850;2022-09-17T06:49:58;19.70;61.40
44863;DHT22;30597;49.628;10.850;2022-09-17T06:52:25;19.70;61.50
44863;DHT22;30597;49.628;10.850;2022-09-17T06:54:51;19.70;61.50
44863;DHT22;30597;49.628;10.850;2022-09-17T06:57:17;19.80;61.60
44863;DHT22;30597;49.628;10.850;2022-09-17T06:59:42;19.80;61.70
44863;DHT22;30597;49.628;10.850;2022-09-17T07:02:08;19.80;61.60
44863;DHT22;30597;49.628;10.850;2022-09-17T07:04:33;19.70;61.50
44863;DHT22;30597;49.628;10.850;2022-09-17T07:06:59;19.70;61.60
44863;DHT22;30597;49.628;10.850;2022-09-17T07:09:24;19.70;61.60
44863;DHT22;30597;49.628;10.850;2022-09-17T07:11:50;19.80;61.80
44863;DHT22;30597;49.628;10.850;2022-09-17T07:14:15;19.80;61.70
44863;DHT22;30597;49.628;10.850;2022-09-17T07:16:41;19.80;61.80
44863;DHT22;30597;49.628;10.850;2022-09-17T07:19:06;19.80;61.70
44863;DHT22;30597;49.628;10.850;2022-09-17T07:21:32;19.80;61.70
44863;DHT22;30597;49.628;10.850;2022-09-17T07:23:57;19.70;61.60
44863;DHT22;30597;49.628;10.850;2022-09-17T07:26:24;19.70;61.70
44863;DHT22;30597;49.628;10.850;2022-09-17T07:28:49;19.70;61.90
44863;DHT22;30597;49.628;10.850;2022-09-17T07:31:15;19.70;61.90
44863;DHT22;30597;49.628;10.850;2022-09-17T07:33:40;19.70;61.80
44863;DHT22;30597;49.628;10.850;2022-09-17T07:36:11;19.70;61.80
44863;DHT22;30597;49.628;10.850;2022-09-17T07:38:37;19.70;61.80
44863;DHT22;30597;49.628;10.850;2022-09-17T07:41:10;19.70;61.80
44863;DHT22;30597;49.628;10.850;2022-09-17T07:43:37;19.70;61.80
44863;DHT22;30597;49.628;10.850;2022-09-17T07:46:05;19.60;61.90
44863;DHT22;30597;49.628;10.850;2022-09-17T07:48:31;19.60;62.00
44863;DHT22;30597;49.628;10.850;2022-09-17T07:50:57;19.60;61.90
44863;DHT22;30597;49.628;10.850;2022-09-17T07:53:23;19.60;61.90
44863;DHT22;30597;49.628;10.850;2022-09-17T07:56:01;19.60;61.90
44863;DHT22;30597;49.628;10.850;2022-09-17T07:58:32;19.60;62.00
44863;DHT22;30597;49.628;10.850;2022-09-17T08:01:06;19.60;62.20
44863;DHT22;30597;49.628;10.850;2022-09-17T08:03:33;19.60;62.20
44863;DHT22;30597;49.628;10.850;2022-09-17T08:06:11;19.60;62.10
44863;DHT22;30597;49.628;10.850;2022-09-17T08:08:37;19.60;62.10
44863;DHT22;30597;49.628;10.850;2022-09-17T08:11:09;19.60;62.30
44863;DHT22;30597;49.628;10.850;2022-09-17T08:13:35;19.60;62.50
44863;DHT22;30597;49.628;10.850;2022-09-17T08:16:07;19.60;62.40
44863;DHT22;30597;49.628;10.850;2022-09-17T08:18:33;19.60;62.30
44863;DHT22;30597;49.628;10.850;2022-09-17T08:21:01;19.60;62.30
44863;DHT22;30597;49.628;10.850;2022-09-17T08:23:28;19.60;62.40
44863;DHT22;30597;49.628;10.850;2022-09-17T08:25:55;19.60;62.30
44863;DHT22;30597;49.628;10.850;2022-09-17T08:28:22;19.60;62.30
44863;DHT22;30597;49.628;10.850;2022-09-17T08:30:50;19.60;62.20
44863;DHT22;30597;49.628;10.850;2022-09-17T08:33:16;19.60;62.20
44863;DHT22;30597;49.628;10.850;2022-09-17T08:35:42;19.60;62.10
44863;DHT22;30597;49.628;10.850;2022-09-17T08:38:08;19.60;62.50
44863;DHT22;30597;49.628;10.850;2022-09-17T08:40:41;19.60;62.40
44863;DHT22;30597;49.628;10.850;2022-09-17T08:43:15;19.70;62.60
44863;DHT22;30597;49.628;10.850;2022-09-17T08:45:41;19.70;62.40
44863;DHT22;30597;49.628;10.850;2022-09-17T08:48:10;19.60;62.40
44863;DHT22;30597;49.628;10.850;2022-09-17T08:50:39;19.60;62.40
44863;DHT22;30597;49.628;10.850;2022-09-17T09:01:31;19.70;59.00
44863;DHT22;30597;49.628;10.850;2022-09-17T09:06:48;19.80;57.90
44863;DHT22;30597;49.628;10.850;2022-09-17T09:09:22;19.90;57.70
44863;DHT22;30597;49.628;10.850;2022-09-17T09:11:57;19.90;57.00
44863;DHT22;30597;49.628;10.850;2022-09-17T09:14:44;19.90;56.80
44863;DHT22;30597;49.628;10.850;2022-09-17T09:17:12;19.90;56.50
44863;DHT22;30597;49.628;10.850;2022-09-17T09:19:44;19.90;56.00
44863;DHT22;30597;49.628;10.850;2022-09-17T09:22:31;20.00;55.70
44863;DHT22;30597;49.628;10.850;2022-09-17T09:25:21;20.00;55.50
44863;DHT22;30597;49.628;10.850;2022-09-17T09:31:15;20.00;55.50
44863;DHT22;30597;49.628;10.850;2022-09-17T09:33:38;20.00;55.20
44863;DHT22;30597;49.628;10.850;2022-09-17T09:36:13;19.90;55.30
44863;DHT22;30597;49.628;10.850;2022-09-17T09:38:58;19.90;55.50
44863;DHT22;30597;49.628;10.850;2022-09-17T09:41:44;19.90;55.50
44863;DHT22;30597;49.628;10.850;2022-09-17T09:44:13;19.90;55.60
44863;DHT22;30597;49.628;10.850;2022-09-17T09:55:49;19.90;55.80
44863;DHT22;30597;49.628;10.850;2022-09-17T10:00:56;19.90;56.00
44863;DHT22;30597;49.628;10.850;2022-09-17T10:03:30;19.90;56.00
44863;DHT22;30597;49.628;10.850;2022-09-17T10:05:57;19.90;56.00
44863;DHT22;30597;49.628;10.850;2022-09-17T10:08:23;19.90;56.00
44863;DHT22;30597;49.628;10.850;2022-09-17T10:11:03;19.90;56.00
44863;DHT22;30597;49.628;10.850;2022-09-17T10:13:31;19.90;56.00
44863;DHT22;30597;49.628;10.850;2022-09-17T10:16:21;19.90;55.90
44863;DHT22;30597;49.628;10.850;2022-09-17T10:18:49;19.90;55.70
44863;DHT22;30597;49.628;10.850;2022-09-17T10:23:59;19.90;55.80
44863;DHT22;30597;49.628;10.850;2022-09-17T10:26:31;19.90;55.60
44863;DHT22;30597;49.628;10.850;2022-09-17T10:28:58;19.90;55.80
44863;DHT22;30597;49.628;10.850;2022-09-17T10:31:25;19.90;55.80
44863;DHT22;30597;49.628;10.850;2022-09-17T10:34:01;19.90;55.80
44863;DHT22;30597;49.628;10.850;2022-09-17T10:36:39;19.90;55.60
44863;DHT22;30597;49.628;10.850;2022-09-17T10:39:31;20.00;55.70
44863;DHT22;30597;49.628;10.850;2022-09-17T10:42:08;19.90;55.60
44863;DHT22;30597;49.628;10.850;2022-09-17T10:44:38;19.90;55.50
44863;DHT22;30597;49.628;10.850;2022-09-17T10:47:23;19.90;55.60
44863;DHT22;30597;49.628;10.850;2022-09-17T10:50:02;19.90;55.50
44863;DHT22;30597;49.628;10.850;2022-09-17T10:52:32;20.00;55.60
44863;DHT22;30597;49.628;10.850;2022-09-17T11:03:03;20.10;55.60
44863;DHT22;30597;49.628;10.850;2022-09-17T11:05:56;20.00;55.20
44863;DHT22;30597;49.628;10.850;2022-09-17T11:08:35;20.00;55.50
44863;DHT22;30597;49.628;10.850;2022-09-17T11:11:10;20.00;55.50
44863;DHT22;30597;49.628;10.850;2022-09-17T11:13:38;20.00;55.40
44863;DHT22;30597;49.628;10.850;2022-09-17T11:25:08;20.10;55.20
44863;DHT22;30597;49.628;10.850;2022-09-17T11:27:45;20.10;55.30
44863;DHT22;30597;49.628;10.850;2022-09-17T11:30:22;20.10;55.20
44863;DHT22;30597;49.628;10.850;2022-09-17T11:35:21;20.10;54.70
44863;DHT22;30597;49.628;10.850;2022-09-17T11:38:04;20.10;54.20
44863;DHT22;30597;49.628;10.850;2022-09-17T11:40:47;20.10;53.30
44863;DHT22;30597;49.628;10.850;2022-09-17T11:43:26;20.10;52.60
44863;DHT22;30597;49.628;10.850;2022-09-17T11:45:59;20.10;52.00
44863;DHT22;30597;49.628;10.850;2022-09-17T11:51:15;20.00;50.90
44863;DHT22;30597;49.628;10.850;2022-09-17T11:56:31;20.00;50.20
44863;DHT22;30597;49.628;10.850;2022-09-17T11:59:15;19.90;50.10
44863;DHT22;30597;49.628;10.850;2022-09-17T12:01:57;19.90;50.00
44863;DHT22;30597;49.628;10.850;2022-09-17T12:12:39;19.90;50.00
44863;DHT22;30597;49.628;10.850;2022-09-17T12:15:16;20.00;50.20
44863;DHT22;30597;49.628;10.850;2022-09-17T12:20:45;19.90;50.50
44863;DHT22;30597;49.628;10.850;2022-09-17T12:23:15;19.90;50.70
44863;DHT22;30597;49.628;10.850;2022-09-17T12:25:56;19.90;50.90
44863;DHT22;30597;49.628;10.850;2022-09-17T12:28:59;19.90;50.90
44863;DHT22;30597;49.628;10.850;2022-09-17T12:34:17;19.90;51.20
44863;DHT22;30597;49.628;10.850;2022-09-17T12:37:03;20.00;51.40
44863;DHT22;30597;49.628;10.850;2022-09-17T12:39:51;19.90;51.50
44863;DHT22;30597;49.628;10.850;2022-09-17T12:42:48;19.90;51.60
44863;DHT22;30597;49.628;10.850;2022-09-17T12:45:29;19.90;51.70
44863;DHT22;30597;49.628;10.850;2022-09-17T12:50:59;19.90;52.00
44863;DHT22;30597;49.628;10.850;2022-09-17T12:53:46;19.90;51.90
44863;DHT22;30597;49.628;10.850;2022-09-17T12:59:05;19.80;52.10
44863;DHT22;30597;49.628;10.850;2022-09-17T13:04:23;19.80;52.40
44863;DHT22;30597;49.628;10.850;2022-09-17T13:07:16;19.70;52.30
44863;DHT22;30597;49.628;10.850;2022-09-17T13:12:53;19.60;52.60
44863;DHT22;30597;49.628;10.850;2022-09-17T13:15:45;19.60;52.80
44863;DHT22;30597;49.628;10.850;2022-09-17T13:21:06;19.60;52.90
44863;DHT22;30597;49.628;10.850;2022-09-17T13:23:44;19.60;53.00
44863;DHT22;30597;49.628;10.850;2022-09-17T13:26:12;19.60;53.10
44863;DHT22;30597;49.628;10.850;2022-09-17T13:31:09;19.60;53.20
44863;DHT22;30597;49.628;10.850;2022-09-17T13:38:59;19.60;53.40
44863;DHT22;30597;49.628;10.850;2022-09-17T13:41:26;19.60;53.50
44863;DHT22;30597;49.628;10.850;2022-09-17T13:43:53;19.50;54.00
44863;DHT22;30597;49.628;10.850;2022-09-17T13:46:24;19.50;53.50
44863;DHT22;30597;49.628;10.850;2022-09-17T13:48:57;19.50;53.50
44863;DHT22;30597;49.628;10.850;2022-09-17T13:54:01;19.50;53.60
44863;DHT22;30597;49.628;10.850;2022-09-17T13:56:36;19.50;53.70
44863;DHT22;30597;49.628;10.850;2022-09-17T13:59:08;19.50;53.70
44863;DHT22;30597;49.628;10.850;2022-09-17T14:01:57;19.50;54.40
44863;DHT22;30597;49.628;10.850;2022-09-17T14:09:52;19.50;54.00
44863;DHT22;30597;49.628;10.850;2022-09-17T14:18:31;19.40;54.00
44863;DHT22;30597;49.628;10.850;2022-09-17T14:21:13;19.50;54.00
44863;DHT22;30597;49.628;10.850;2022-09-17T14:23:45;19.50;54.10
44863;DHT22;30597;49.628;10.850;2022-09-17T14:26:28;19.40;54.10
44863;DHT22;30597;49.628;10.850;2022-09-17T14:29:29;19.50;54.10
44863;DHT22;30597;49.628;10.850;2022-09-17T14:31:58;19.50;54.00
44863;DHT22;30597;49.628;10.850;2022-09-17T14:34:25;19.40;54.00
44863;DHT22;30597;49.628;10.850;2022-09-17T14:36:52;19.40;54.00
44863;DHT22;30597;49.628;10.850;2022-09-17T14:39:23;19.50;54.10
44863;DHT22;30597;49.628;10.850;2022-09-17T14:41:51;19.50;54.00
44863;DHT22;30597;49.628;10.850;2022-09-17T14:44:24;19.40;54.00
44863;DHT22;30597;49.628;10.850;2022-09-17T14:46:58;19.40;54.00
44863;DHT22;30597;49.628;10.850;2022-09-17T14:49:31;19.40;54.00
44863;DHT22;30597;49.628;10.850;2022-09-17T14:51:58;19.40;53.90
44863;DHT22;30597;49.628;10.850;2022-09-17T14:54:30;19.50;54.10
44863;DHT22;30597;49.628;10.850;2022-09-17T14:59:42;19.50;54.00
44863;DHT22;30597;49.628;10.850;2022-09-17T15:02:36;19.40;54.00
44863;DHT22;30597;49.628;10.850;2022-09-17T15:07:41;19.50;54.10
44863;DHT22;30597;49.628;10.850;2022-09-17T15:10:12;19.50;54.10
44863;DHT22;30597;49.628;10.850;2022-09-17T15:12:38;19.50;54.10
44863;DHT22;30597;49.628;10.850;2022-09-17T15:15:04;19.50;54.10
44863;DHT22;30597;49.628;10.850;2022-09-17T15:17:30;19.50;54.00
44863;DHT22;30597;49.628;10.850;2022-09-17T15:19:58;19.50;54.10
44863;DHT22;30597;49.628;10.850;2022-09-17T15:22:30;19.50;54.20
44863;DHT22;30597;49.628;10.850;2022-09-17T15:25:16;19.50;54.10
44863;DHT22;30597;49.628;10.850;2022-09-17T15:27:45;19.50;54.10
44863;DHT22;30597;49.628;10.850;2022-09-17T15:30:19;19.40;54.00
44863;DHT22;30597;49.628;10.850;2022-09-17T15:32:58;19.40;53.90
44863;DHT22;30597;49.628;10.850;2022-09-17T15:35:31;19.50;54.20
44863;DHT22;30597;49.628;10.850;2022-09-17T15:38:21;19.40;54.10
44863;DHT22;30597;49.628;10.850;2022-09-17T15:40:49;19.50;54.20
44863;DHT22;30597;49.628;10.850;2022-09-17T15:43:25;19.50;54.10
44863;DHT22;30597;49.628;10.850;2022-09-17T15:45:52;19.40;54.10
44863;DHT22;30597;49.628;10.850;2022-09-17T15:50:54;19.40;54.10
44863;DHT22;30597;49.628;10.850;2022-09-17T15:53:28;19.50;54.00
44863;DHT22;30597;49.628;10.850;2022-09-17T15:56:08;19.40;54.00
44863;DHT22;30597;49.628;10.850;2022-09-17T16:08:55;19.50;54.00
44863;DHT22;30597;49.628;10.850;2022-09-17T16:11:31;19.50;54.00
44863;DHT22;30597;49.628;10.850;2022-09-17T16:13:58;19.40;54.10
44863;DHT22;30597;49.628;10.850;2022-09-17T16:16:28;19.50;54.00
44863;DHT22;30597;49.628;10.850;2022-09-17T16:18:56;19.40;54.10
44863;DHT22;30597;49.628;10.850;2022-09-17T16:21:21;19.50;54.20
44863;DHT22;30597;49.628;10.850;2022-09-17T16:23:47;19.40;54.20
44863;DHT22;30597;49.628;10.850;2022-09-17T16:26:22;19.40;54.20
44863;DHT22;30597;49.628;10.850;2022-09-17T16:28:50;19.40;54.20
44863;DHT22;30597;49.628;10.850;2022-09-17T16:31:20;19.40;54.10
44863;DHT22;30597;49.628;10.850;2022-09-17T16:33:46;19.40;54.00
44863;DHT22;30597;49.628;10.850;2022-09-17T16:36:11;19.40;54.10
44863;DHT22;30597;49.628;10.850;2022-09-17T16:38:37;19.40;54.20
44863;DHT22;30597;49.628;10.850;2022-09-17T16:41:04;19.40;54.10
44863;DHT22;30597;49.628;10.850;2022-09-17T16:43:30;19.40;54.10
44863;DHT22;30597;49.628;10.850;2022-09-17T16:46:03;19.40;54.20
44863;DHT22;30597;49.628;10.850;2022-09-17T16:48:30;19.40;54.30
44863;DHT22;30597;49.628;10.850;2022-09-17T16:50:56;19.40;54.20
44863;DHT22;30597;49.628;10.850;2022-09-17T16:53:21;19.40;54.20
44863;DHT22;30597;49.628;10.850;2022-09-17T16:55:47;19.40;54.30
44863;DHT22;30597;49.628;10.850;2022-09-17T16:58:12;19.40;54.30
44863;DHT22;30597;49.628;10.850;2022-09-17T17:00:41;19.40;54.30
44863;DHT22;30597;49.628;10.850;2022-09-17T17:03:08;19.40;54.40
44863;DHT22;30597;49.628;10.850;2022-09-17T17:05:35;19.30;54.40
44863;DHT22;30597;49.628;10.850;2022-09-17T17:08:01;19.30;54.40
44863;DHT22;30597;49.628;10.850;2022-09-17T17:10:27;19.30;54.40
44863;DHT22;30597;49.628;10.850;2022-09-17T17:12:53;19.30;54.40
44863;DHT22;30597;49.628;10.850;2022-09-17T17:15:19;19.30;54.50
44863;DHT22;30597;49.628;10.850;2022-09-17T17:17:46;19.30;54.60
44863;DHT22;30597;49.628;10.850;2022-09-17T17:20:11;19.30;54.60
44863;DHT22;30597;49.628;10.850;2022-09-17T17:22:39;19.30;54.70
44863;DHT22;30597;49.628;10.850;2022-09-17T17:25:06;19.30;54.70
44863;DHT22;30597;49.628;10.850;2022-09-17T17:27:32;19.20;54.60
44863;DHT22;30597;49.628;10.850;2022-09-17T17:29:58;19.20;54.60
44863;DHT22;30597;49.628;10.850;2022-09-17T17:32:28;19.20;54.60
44863;DHT22;30597;49.628;10.850;2022-09-17T17:34:54;19.20;54.70
44863;DHT22;30597;49.628;10.850;2022-09-17T17:37:19;19.20;54.70
44863;DHT22;30597;49.628;10.850;2022-09-17T17:39:47;19.20;54.70
44863;DHT22;30597;49.628;10.850;2022-09-17T17:42:13;19.10;54.50
44863;DHT22;30597;49.628;10.850;2022-09-17T17:44:38;19.10;54.70
44863;DHT22;30597;49.628;10.850;2022-09-17T17:47:04;19.10;54.70
44863;DHT22;30597;49.628;10.850;2022-09-17T17:49:31;19.10;54.60
44863;DHT22;30597;49.628;10.850;2022-09-17T17:51:57;19.10;54.90
44863;DHT22;30597;49.628;10.850;2022-09-17T17:54:22;19.00;54.90
44863;DHT22;30597;49.628;10.850;2022-09-17T17:56:48;19.10;54.90
44863;DHT22;30597;49.628;10.850;2022-09-17T17:59:14;19.00;54.90
44863;DHT22;30597;49.628;10.850;2022-09-17T18:01:40;19.00;54.90
44863;DHT22;30597;49.628;10.850;2022-09-17T18:04:05;19.00;55.00